createdAt,value
2023-05-21T00:00:58.342Z,16.65
2023-05-21T00:03:50.766Z,16.65
2023-05-21T00:06:33.258Z,16.66
2023-05-21T00:09:25.547Z,16.68
2023-05-21T00:12:17.583Z,16.68
2023-05-21T00:15:11.261Z,16.68
2023-05-21T00:18:03.607Z,16.68
2023-05-21T00:20:38.691Z,16.68
2023-05-21T00:23:32.670Z,16.68
2023-05-21T00:26:25.119Z,16.68
2023-05-21T00:29:08.163Z,16.68
2023-05-21T00:32:00.818Z,16.69
2023-05-21T00:34:53.571Z,16.69
2023-05-21T00:37:34.427Z,16.70
2023-05-21T00:40:11.796Z,16.72
2023-05-21T00:43:03.933Z,16.71
2023-05-21T00:45:59.171Z,16.70
2023-05-21T00:48:52.285Z,16.71
2023-05-21T00:51:30.438Z,16.71
2023-05-21T00:54:22.840Z,16.67
2023-05-21T00:56:58.021Z,16.67
2023-05-21T00:59:52.130Z,16.68
2023-05-21T01:02:44.968Z,16.67
2023-05-21T01:05:17.201Z,16.68
2023-05-21T01:08:10.267Z,16.69
2023-05-21T01:11:02.603Z,16.70
2023-05-21T01:13:55.139Z,16.72
2023-05-21T01:16:50.085Z,16.74
2023-05-21T01:19:44.438Z,16.76
2023-05-21T01:22:29.572Z,16.79
2023-05-21T01:25:21.739Z,16.81
2023-05-21T01:28:09.990Z,16.83
2023-05-21T01:31:06.239Z,16.84
2023-05-21T01:34:02.363Z,16.85
2023-05-21T01:37:02.114Z,16.85
2023-05-21T01:39:57.542Z,16.87
2023-05-21T01:42:50.067Z,16.87
2023-05-21T01:45:34.707Z,16.87
2023-05-21T01:48:29.101Z,16.88
2023-05-21T01:51:21.895Z,16.89
2023-05-21T01:54:14.246Z,16.89
2023-05-21T01:57:06.749Z,16.88
2023-05-21T02:00:00.156Z,16.87
2023-05-21T02:02:52.792Z,16.86
2023-05-21T02:05:44.870Z,16.86
2023-05-21T02:08:38.546Z,16.86
2023-05-21T02:11:30.850Z,16.85
2023-05-21T02:14:25.219Z,16.85
2023-05-21T02:17:17.398Z,16.86
2023-05-21T02:19:54.421Z,16.86
2023-05-21T02:22:48.495Z,16.84
2023-05-21T02:25:40.571Z,16.83
2023-05-21T02:28:33.210Z,16.84
2023-05-21T02:31:25.309Z,16.84
2023-05-21T02:34:02.236Z,16.85
2023-05-21T02:36:54.705Z,16.85
2023-05-21T02:39:27.258Z,16.86
2023-05-21T02:42:19.293Z,16.87
2023-05-21T02:45:13.442Z,16.88
2023-05-21T02:48:05.667Z,16.87
2023-05-21T02:50:57.793Z,16.87
2023-05-21T02:53:49.924Z,16.84
2023-05-21T02:56:42.050Z,16.83
2023-05-21T02:59:34.059Z,16.84
2023-05-21T03:02:26.149Z,16.83
2023-05-21T03:04:58.955Z,16.82
2023-05-21T03:07:48.289Z,16.82
2023-05-21T03:10:40.319Z,16.82
2023-05-21T03:13:32.324Z,16.82
2023-05-21T03:16:24.443Z,16.82
2023-05-21T03:19:16.544Z,16.82
2023-05-21T03:22:08.994Z,16.82
2023-05-21T03:25:01.870Z,16.83
2023-05-21T03:27:54.280Z,16.84
2023-05-21T03:30:29.275Z,16.84
2023-05-21T03:33:21.286Z,16.84
2023-05-21T03:36:13.237Z,16.84
2023-05-21T03:39:05.302Z,16.82
2023-05-21T03:41:57.348Z,16.81
2023-05-21T03:44:49.548Z,16.78
2023-05-21T03:47:41.955Z,16.78
2023-05-21T03:50:34.167Z,16.78
2023-05-21T03:53:26.199Z,16.79
2023-05-21T03:56:18.166Z,16.75
2023-05-21T03:59:10.265Z,16.73
2023-05-21T04:02:02.422Z,16.71
2023-05-21T04:04:55.948Z,16.71
2023-05-21T04:07:48.543Z,16.73
2023-05-21T04:10:35.662Z,16.73
2023-05-21T04:13:18.120Z,16.71
2023-05-21T04:16:10.863Z,16.69
2023-05-21T04:19:02.988Z,16.72
2023-05-21T04:21:44.985Z,16.72
2023-05-21T04:24:38.097Z,16.71
2023-05-21T04:27:30.236Z,16.71
2023-05-21T04:30:12.078Z,16.69
2023-05-21T04:33:04.200Z,16.72
2023-05-21T04:35:56.470Z,16.78
2023-05-21T04:38:39.800Z,16.82
2023-05-21T04:41:31.856Z,16.84
2023-05-21T04:44:24.810Z,16.88
2023-05-21T04:47:18.356Z,16.95
2023-05-21T04:50:12.013Z,17.04
2023-05-21T04:53:04.990Z,17.14
2023-05-21T04:55:59.381Z,17.23
2023-05-21T04:58:51.503Z,17.32
2023-05-21T05:01:43.982Z,17.37
2023-05-21T05:04:36.106Z,17.39
2023-05-21T05:07:28.125Z,17.46
2023-05-21T05:10:11.442Z,17.57
2023-05-21T05:13:03.601Z,17.67
2023-05-21T05:15:48.731Z,17.72
2023-05-21T05:18:41.827Z,17.81
2023-05-21T05:21:34.640Z,17.90
2023-05-21T05:24:26.650Z,17.93
2023-05-21T05:27:18.952Z,17.98
2023-05-21T05:30:12.791Z,18.07
2023-05-21T05:33:04.873Z,18.17
2023-05-21T05:35:48.238Z,18.27
2023-05-21T05:38:40.286Z,18.43
2023-05-21T05:41:32.558Z,18.68
2023-05-21T05:44:24.550Z,19.04
2023-05-21T05:47:16.877Z,19.72
2023-05-21T05:50:10.025Z,20.62
2023-05-21T05:53:02.084Z,21.50
2023-05-21T05:55:54.331Z,22.50
2023-05-21T05:58:46.376Z,23.30
2023-05-21T06:01:38.399Z,24.13
2023-05-21T06:04:30.579Z,25.01
2023-05-21T06:07:22.557Z,25.88
2023-05-21T06:10:14.697Z,26.75
2023-05-21T06:13:06.749Z,27.57
2023-05-21T06:15:39.361Z,28.23
2023-05-21T06:18:31.519Z,28.83
2023-05-21T06:21:23.618Z,29.31
2023-05-21T06:24:15.936Z,30.04
2023-05-21T06:27:08.543Z,30.57
2023-05-21T06:30:00.568Z,31.04
2023-05-21T06:32:52.762Z,31.37
2023-05-21T06:35:44.884Z,31.42
2023-05-21T06:38:37.104Z,31.28
2023-05-21T06:41:29.110Z,31.29
2023-05-21T06:44:21.285Z,31.86
2023-05-21T06:47:13.350Z,32.28
2023-05-21T06:50:06.019Z,32.24
2023-05-21T06:52:58.061Z,32.27
2023-05-21T06:55:53.618Z,32.30
2023-05-21T06:58:45.934Z,32.06
2023-05-21T07:01:34.538Z,31.83
2023-05-21T07:04:09.604Z,32.12
2023-05-21T07:07:01.641Z,32.30
2023-05-21T07:09:53.618Z,32.82
2023-05-21T07:12:45.623Z,33.09
2023-05-21T07:15:37.912Z,33.02
2023-05-21T07:18:30.234Z,32.88
2023-05-21T07:21:22.363Z,32.30
2023-05-21T07:24:14.373Z,31.60
2023-05-21T07:27:17.658Z,31.01
2023-05-21T07:30:16.776Z,30.21
2023-05-21T07:33:08.870Z,29.39
2023-05-21T07:36:00.934Z,28.79
2023-05-21T07:38:53.035Z,28.22
2023-05-21T07:41:45.622Z,27.78
2023-05-21T07:44:26.312Z,27.44
2023-05-21T07:47:18.386Z,26.87
2023-05-21T07:49:50.217Z,26.50
2023-05-21T07:52:42.332Z,26.24
2023-05-21T07:55:34.503Z,25.99
2023-05-21T07:58:26.993Z,25.70
2023-05-21T08:44:26.819Z,24.33
2023-05-21T08:47:11.365Z,24.42
2023-05-21T08:50:01.982Z,24.59
2023-05-21T08:52:55.275Z,24.75
2023-05-21T08:55:47.797Z,24.79
2023-05-21T08:58:32.129Z,24.81
2023-05-21T09:01:26.664Z,24.83
2023-05-21T09:04:19.023Z,24.81
2023-05-21T09:07:13.146Z,24.91
2023-05-21T09:10:09.918Z,24.97
2023-05-21T09:13:02.042Z,25.11
2023-05-21T09:15:37.435Z,25.30
2023-05-21T09:18:27.537Z,25.36
2023-05-21T09:21:26.242Z,25.36
2023-05-21T09:24:17.414Z,25.41
2023-05-21T09:26:52.674Z,25.43
2023-05-21T09:29:34.955Z,25.48
2023-05-21T09:32:27.273Z,25.49
2023-05-21T09:35:19.383Z,25.50
2023-05-21T09:38:13.106Z,25.56
2023-05-21T09:41:07.207Z,25.54
2023-05-21T09:44:03.113Z,25.49
2023-05-21T09:46:45.321Z,25.62
2023-05-21T09:49:39.672Z,25.81
2023-05-21T09:52:32.071Z,25.87
2023-05-21T09:55:26.515Z,25.98
2023-05-21T09:58:18.591Z,26.08
2023-05-21T10:01:13.186Z,26.15
2023-05-21T10:03:50.685Z,26.14
2023-05-21T10:06:45.326Z,26.15
2023-05-21T10:09:37.699Z,26.11
2023-05-21T10:12:31.823Z,26.18
2023-05-21T10:15:26.279Z,26.25
2023-05-21T10:18:21.430Z,26.22
2023-05-21T10:21:14.168Z,26.24
2023-05-21T10:24:07.981Z,26.17
2023-05-21T10:27:01.881Z,26.13
2023-05-21T10:29:42.345Z,26.12
2023-05-21T10:32:34.600Z,26.15
2023-05-21T10:35:28.193Z,26.18
2023-05-21T10:38:21.694Z,26.20
2023-05-21T10:41:16.545Z,26.23
2023-05-21T10:44:19.035Z,26.29
2023-05-21T10:47:52.153Z,26.43
2023-05-21T10:51:02.720Z,26.51
2023-05-21T10:54:34.147Z,26.48
2023-05-21T10:57:33.101Z,26.50
2023-05-21T11:00:27.947Z,26.50
2023-05-21T11:03:18.617Z,26.53
2023-05-21T11:06:11.593Z,26.59
2023-05-21T11:09:28.165Z,26.64
2023-05-21T11:12:12.893Z,26.64
2023-05-21T11:15:05.215Z,26.59
2023-05-21T11:17:59.361Z,26.51
2023-05-21T11:20:54.470Z,26.49
2023-05-21T11:23:54.544Z,26.53
2023-05-21T11:27:08.607Z,26.54
2023-05-21T11:29:49.240Z,26.64
2023-05-21T11:33:01.493Z,26.80
2023-05-21T11:36:01.353Z,26.77
2023-05-21T11:39:11.951Z,26.88
2023-05-21T11:42:04.923Z,26.99
2023-05-21T11:44:59.915Z,27.08
2023-05-21T11:47:34.724Z,27.10
2023-05-21T11:50:27.339Z,26.95
2023-05-21T11:53:19.448Z,26.81
2023-05-21T11:55:57.469Z,26.81
2023-05-21T11:58:49.971Z,26.94
2023-05-21T12:01:42.755Z,27.06
2023-05-21T12:04:36.435Z,27.12
2023-05-21T12:07:31.294Z,27.17
2023-05-21T12:10:26.869Z,27.30
2023-05-21T12:13:19.143Z,27.42
2023-05-21T12:16:11.799Z,27.53
2023-05-21T12:19:04.906Z,27.61
2023-05-21T12:21:57.347Z,27.61
2023-05-21T12:24:32.212Z,27.60
2023-05-21T12:27:24.850Z,27.66
2023-05-21T12:30:17.256Z,27.63
2023-05-21T12:32:52.147Z,27.49
2023-05-21T12:35:46.337Z,27.43
2023-05-21T12:38:39.610Z,27.42
2023-05-21T12:41:32.215Z,27.47
2023-05-21T12:44:24.235Z,27.45
2023-05-21T12:47:18.347Z,27.37
2023-05-21T12:50:13.916Z,27.27
2023-05-21T12:52:48.556Z,27.14
2023-05-21T12:55:41.143Z,27.10
2023-05-21T12:58:38.230Z,27.06
2023-05-21T13:01:30.268Z,26.96
2023-05-21T13:04:23.423Z,27.02
2023-05-21T13:07:16.079Z,27.06
2023-05-21T13:10:10.496Z,27.07
2023-05-21T13:12:45.211Z,27.09
2023-05-21T13:15:37.293Z,27.19
2023-05-21T13:18:29.296Z,27.23
2023-05-21T13:21:21.301Z,27.17
2023-05-21T13:24:13.370Z,27.04
2023-05-21T13:27:05.735Z,26.96
2023-05-21T13:29:57.997Z,27.02
2023-05-21T13:32:50.556Z,27.01
2023-05-21T13:35:42.809Z,26.93
2023-05-21T13:38:14.628Z,26.85
2023-05-21T13:41:06.643Z,26.83
2023-05-21T13:43:58.895Z,26.82
2023-05-21T13:46:51.144Z,26.80
2023-05-21T13:49:43.407Z,26.78
2023-05-21T13:52:35.485Z,26.81
2023-05-21T13:55:27.498Z,26.88
2023-05-21T13:58:08.276Z,26.92
2023-05-21T14:01:00.448Z,26.86
2023-05-21T14:03:32.364Z,26.65
2023-05-21T14:06:24.529Z,26.62
2023-05-21T14:09:16.657Z,26.62
2023-05-21T14:12:09.653Z,26.58
2023-05-21T14:15:01.783Z,26.62
2023-05-21T14:17:53.936Z,26.66
2023-05-21T14:20:25.896Z,26.62
2023-05-21T14:23:17.966Z,26.60
2023-05-21T14:26:10.040Z,26.56
2023-05-21T14:29:02.216Z,26.53
2023-05-21T14:31:54.294Z,26.47
2023-05-21T14:34:46.337Z,26.44
2023-05-21T14:37:38.335Z,26.44
2023-05-21T14:40:30.383Z,26.34
2023-05-21T14:43:22.480Z,26.20
2023-05-21T14:46:14.557Z,26.17
2023-05-21T14:49:06.606Z,26.08
2023-05-21T14:51:58.676Z,26.01
2023-05-21T14:54:50.679Z,26.03
2023-05-21T14:57:42.682Z,25.99
2023-05-21T15:00:35.361Z,25.92
2023-05-21T15:03:27.690Z,25.87
2023-05-21T15:06:20.556Z,25.81
2023-05-21T15:09:12.577Z,25.77
2023-05-21T15:12:04.710Z,25.72
2023-05-21T15:14:42.519Z,25.67
2023-05-21T15:17:35.251Z,25.62
2023-05-21T15:20:27.315Z,25.55
2023-05-21T15:23:19.588Z,25.46
2023-05-21T15:26:11.577Z,25.37
2023-05-21T15:29:03.959Z,25.32
2023-05-21T15:31:56.014Z,25.30
2023-05-21T15:34:48.618Z,25.24
2023-05-21T15:37:40.757Z,25.18
2023-05-21T15:40:33.300Z,25.14
2023-05-21T15:43:25.369Z,25.08
2023-05-21T15:46:17.487Z,25.02
2023-05-21T15:49:09.637Z,25.01
2023-05-21T15:52:02.989Z,24.94
2023-05-21T15:54:54.998Z,24.91
2023-05-21T15:57:37.512Z,24.90
2023-05-21T16:00:29.663Z,24.84
2023-05-21T16:03:21.839Z,24.74
2023-05-21T16:06:14.039Z,24.66
2023-05-21T16:09:06.454Z,24.62
2023-05-21T16:11:44.810Z,24.59
2023-05-21T16:14:36.859Z,24.54
2023-05-21T16:17:14.012Z,24.47
2023-05-21T16:20:07.323Z,24.41
2023-05-21T16:22:59.475Z,24.39
2023-05-21T16:25:51.550Z,24.36
2023-05-21T16:28:43.557Z,24.33
2023-05-21T16:31:35.857Z,24.27
2023-05-21T16:34:07.875Z,24.25
2023-05-21T16:36:59.869Z,24.24
2023-05-21T16:39:36.979Z,24.21
2023-05-21T16:42:20.631Z,24.16
2023-05-21T16:45:20.621Z,24.14
2023-05-21T16:48:13.223Z,24.08
2023-05-21T16:50:48.333Z,24.00
2023-05-21T16:53:40.579Z,23.90
2023-05-21T16:56:17.479Z,23.86
2023-05-21T16:59:09.501Z,23.82
2023-05-21T17:02:01.541Z,23.79
2023-05-21T17:04:54.091Z,23.77
2023-05-21T17:07:46.133Z,23.73
2023-05-21T17:10:38.202Z,23.68
2023-05-21T17:13:30.297Z,23.62
2023-05-21T17:16:22.950Z,23.55
2023-05-21T17:19:15.089Z,23.47
2023-05-21T17:22:07.354Z,23.42
2023-05-21T17:24:59.469Z,23.35
2023-05-21T17:27:52.704Z,23.27
2023-05-21T17:30:45.360Z,23.21
2023-05-21T17:33:29.319Z,23.16
2023-05-21T17:36:21.351Z,23.12
2023-05-21T17:39:13.406Z,23.06
2023-05-21T17:42:05.797Z,23.00
2023-05-21T17:44:41.212Z,22.94
2023-05-21T17:47:34.508Z,22.87
2023-05-21T17:50:27.079Z,22.81
2023-05-21T17:53:19.115Z,22.75
2023-05-21T17:55:53.779Z,22.69
2023-05-21T17:58:25.646Z,22.63
2023-05-21T18:01:17.726Z,22.56
2023-05-21T18:04:12.171Z,22.49
2023-05-21T18:07:03.222Z,22.42
2023-05-21T18:09:56.510Z,22.35
2023-05-21T18:12:37.339Z,22.30
2023-05-21T18:15:29.387Z,22.25
2023-05-21T18:18:21.767Z,22.19
2023-05-21T18:21:14.288Z,22.14
2023-05-21T18:24:07.894Z,22.10
2023-05-21T18:26:59.899Z,22.04
2023-05-21T18:29:52.456Z,22.01
2023-05-21T18:32:46.213Z,21.96
2023-05-21T18:35:39.362Z,21.92
2023-05-21T18:38:32.239Z,21.87
2023-05-21T18:41:24.815Z,21.78
2023-05-21T18:44:16.835Z,21.72
2023-05-21T18:46:48.707Z,21.67
2023-05-21T18:49:41.163Z,21.62
2023-05-21T18:52:33.254Z,21.58
2023-05-21T18:55:25.754Z,21.52
2023-05-21T18:58:17.799Z,21.47
2023-05-21T19:01:10.296Z,21.41
2023-05-21T19:03:51.759Z,21.36
2023-05-21T19:06:43.786Z,21.26
2023-05-21T19:09:35.864Z,21.18
2023-05-21T19:12:29.320Z,21.11
2023-05-21T19:15:21.718Z,21.05
2023-05-21T19:18:14.248Z,20.98
2023-05-21T19:21:06.551Z,20.85
2023-05-21T19:23:58.548Z,20.75
2023-05-21T19:26:33.453Z,20.68
2023-05-21T19:29:27.693Z,20.61
2023-05-21T19:32:23.567Z,20.54
2023-05-21T19:35:15.623Z,20.47
2023-05-21T19:38:08.452Z,20.41
2023-05-21T19:41:00.804Z,20.37
2023-05-21T19:43:53.114Z,20.33
2023-05-21T19:46:27.804Z,20.26
2023-05-21T19:49:20.021Z,20.18
2023-05-21T19:52:12.419Z,20.10
2023-05-21T19:55:06.266Z,20.02
2023-05-21T19:57:58.299Z,19.94
2023-05-21T20:00:33.261Z,19.86
2023-05-21T20:03:20.083Z,19.82
2023-05-21T20:06:12.894Z,19.75
2023-05-21T20:09:05.646Z,19.70
2023-05-21T20:11:57.607Z,19.67
2023-05-21T20:14:49.911Z,19.63
2023-05-21T20:17:44.066Z,19.59
2023-05-21T20:20:38.105Z,19.54
2023-05-21T20:23:30.279Z,19.50
2023-05-21T20:26:23.167Z,19.47
2023-05-21T20:29:15.250Z,19.41
2023-05-21T20:32:08.318Z,19.36
2023-05-21T20:35:03.278Z,19.31
2023-05-21T20:37:41.075Z,19.26
2023-05-21T20:40:33.065Z,19.21
2023-05-21T20:43:25.471Z,19.18
2023-05-21T20:46:18.330Z,19.13
2023-05-21T20:49:10.694Z,19.09
2023-05-21T20:52:02.809Z,19.05
2023-05-21T20:54:55.078Z,19.01
2023-05-21T20:57:47.219Z,18.96
2023-05-21T21:00:41.868Z,18.91
2023-05-21T21:03:34.991Z,18.84
2023-05-21T21:06:30.057Z,18.79
2023-05-21T21:09:22.276Z,18.74
2023-05-21T21:12:25.383Z,18.68
2023-05-21T21:15:19.053Z,18.62
2023-05-21T21:18:12.414Z,18.57
2023-05-21T21:21:04.820Z,18.52
2023-05-21T21:23:42.023Z,18.48
2023-05-21T21:26:17.088Z,18.44
2023-05-21T21:29:09.128Z,18.42
2023-05-21T21:32:01.158Z,18.36
2023-05-21T21:34:42.090Z,18.31
2023-05-21T21:37:34.165Z,18.27
2023-05-21T21:40:27.309Z,18.23
2023-05-21T21:43:19.294Z,18.20
2023-05-21T21:46:11.379Z,18.16
2023-05-21T21:48:59.503Z,18.10
2023-05-21T21:51:51.939Z,18.03
2023-05-21T21:54:43.912Z,17.97
2023-05-21T21:57:35.933Z,17.94
2023-05-21T22:00:28.511Z,17.89
2023-05-21T22:03:20.596Z,17.85
2023-05-21T22:06:12.672Z,17.79
2023-05-21T22:09:04.782Z,17.75
2023-05-21T22:11:57.518Z,17.69
2023-05-21T22:14:51.016Z,17.67
2023-05-21T22:17:43.076Z,17.64
2023-05-21T22:20:35.148Z,17.60
2023-05-21T22:23:27.181Z,17.55
2023-05-21T22:26:19.224Z,17.52
2023-05-21T22:29:11.366Z,17.48
2023-05-21T22:31:45.910Z,17.46
2023-05-21T22:34:38.028Z,17.41
2023-05-21T22:37:30.036Z,17.36
2023-05-21T22:40:22.115Z,17.32
2023-05-21T22:43:14.114Z,17.26
2023-05-21T22:46:06.266Z,17.19
2023-05-21T22:48:58.330Z,17.16
2023-05-21T22:51:52.584Z,17.11
2023-05-21T22:54:44.595Z,17.08
2023-05-21T22:57:36.649Z,17.04
2023-05-21T23:00:29.157Z,16.99
2023-05-21T23:03:21.224Z,16.93
2023-05-21T23:06:13.327Z,16.88
2023-05-21T23:09:05.937Z,16.82
2023-05-21T23:11:58.100Z,16.78
2023-05-21T23:14:50.361Z,16.74
2023-05-21T23:17:42.372Z,16.69
2023-05-21T23:20:34.476Z,16.65
2023-05-21T23:23:26.480Z,16.62
2023-05-21T23:26:07.431Z,16.58
2023-05-21T23:28:59.432Z,16.53
2023-05-21T23:31:51.814Z,16.47
2023-05-21T23:34:43.923Z,16.43
2023-05-21T23:37:36.117Z,16.38
2023-05-21T23:40:28.177Z,16.34
2023-05-21T23:43:20.242Z,16.33
2023-05-21T23:46:13.841Z,16.29
2023-05-21T23:49:05.957Z,16.22
2023-05-21T23:51:58.148Z,16.16
2023-05-21T23:54:50.203Z,16.12
2023-05-21T23:57:42.268Z,16.09
